Time;durP1;ratioP1;P1;durP2;ratioP2;P2;SDS_P1;SDS_P2;PMS_P1;PMS_P2;Temp;Humidity;BMP_temperature;BMP_pressure;BME280_temperature;BME280_humidity;BME280_pressure;Samples;Min_cycle;Max_cycle;Signal;HPM_P1;HPM_P2
2022/06/03 00:00:05;;;;;;;12.43;6.00;;;10.60;99.90;;;;;;4970989;28;20042;-70
2022/06/03 00:03:11;;;;;;;8.75;5.82;;;10.50;99.90;;;;;;4965940;28;20051;-69
2022/06/03 00:06:05;;;;;;;7.82;5.68;;;10.50;99.90;;;;;;4971274;28;20824;-69
2022/06/03 00:08:46;;;;;;;11.55;5.93;;;10.50;99.90;;;;;;4966927;28;20476;-69
2022/06/03 00:11:50;;;;;;;9.68;6.15;;;10.40;99.90;;;;;;4969379;28;20110;-69
2022/06/03 00:14:34;;;;;;;11.50;6.38;;;10.40;99.90;;;;;;4970929;28;20053;-69
2022/06/03 00:17:39;;;;;;;9.43;6.53;;;10.40;99.90;;;;;;4969268;28;20119;-69
2022/06/03 00:20:07;;;;;;;12.98;6.88;;;10.40;99.90;;;;;;4967611;28;20066;-69
2022/06/03 00:23:06;;;;;;;10.73;6.88;;;10.40;99.90;;;;;;4966750;28;20043;-69
2022/06/03 00:25:58;;;;;;;8.82;6.57;;;10.30;99.90;;;;;;4971173;28;20401;-70
2022/06/03 00:29:05;;;;;;;10.45;6.25;;;10.30;99.90;;;;;;4970956;28;20038;-69
2022/06/03 00:31:49;;;;;;;12.85;6.80;;;10.30;99.90;;;;;;4965043;28;20050;-70
2022/06/03 00:34:41;;;;;;;11.55;7.00;;;10.20;99.90;;;;;;4970143;28;20093;-69
2022/06/03 00:37:52;;;;;;;11.20;6.97;;;10.20;99.90;;;;;;4968851;28;20050;-69
2022/06/03 00:40:35;;;;;;;13.55;7.65;;;10.20;99.90;;;;;;4979694;28;20046;-69
2022/06/03 00:43:42;;;;;;;14.52;6.93;;;10.20;99.90;;;;;;4972236;28;20051;-69
2022/06/03 00:46:36;;;;;;;10.70;7.20;;;10.10;99.90;;;;;;4967231;28;20057;-70
2022/06/03 00:49:23;;;;;;;8.80;6.72;;;10.10;99.90;;;;;;4977695;28;20039;-69
2022/06/03 00:52:09;;;;;;;12.75;6.03;;;10.10;99.90;;;;;;4973349;28;20393;-69
2022/06/03 00:54:45;;;;;;;12.73;6.75;;;10.10;99.90;;;;;;4974657;28;20077;-69
2022/06/03 00:57:38;;;;;;;12.75;7.28;;;10.10;99.90;;;;;;4964801;28;20131;-69
2022/06/03 01:00:06;;;;;;;13.98;7.53;;;10.10;99.90;;;;;;4973303;28;20466;-70
2022/06/03 01:02:47;;;;;;;12.60;7.07;;;10.00;99.90;;;;;;4974361;28;20039;-69
2022/06/03 01:05:44;;;;;;;12.52;7.93;;;10.00;99.90;;;;;;4970972;28;20047;-69
2022/06/03 01:08:31;;;;;;;13.48;8.60;;;10.00;99.90;;;;;;4974957;28;20047;-69
2022/06/03 01:11:20;;;;;;;8.13;6.43;;;9.90;99.90;;;;;;4974935;28;20489;-68
2022/06/03 01:13:45;;;;;;;13.07;7.85;;;9.90;99.90;;;;;;4967976;28;20046;-69
2022/06/03 01:16:37;;;;;;;10.63;7.13;;;9.90;99.90;;;;;;4974504;28;20473;-69
2022/06/03 01:19:14;;;;;;;9.23;7.25;;;9.90;99.90;;;;;;4972583;28;20049;-69
2022/06/03 01:22:12;;;;;;;9.95;6.90;;;9.90;99.90;;;;;;4974302;28;20050;-68
2022/06/03 01:25:15;;;;;;;9.93;7.30;;;10.00;99.90;;;;;;4975921;28;20051;-70
2022/06/03 01:28:09;;;;;;;10.30;7.18;;;9.90;99.90;;;;;;4971912;28;20402;-69
2022/06/03 01:31:05;;;;;;;11.63;7.30;;;9.80;99.90;;;;;;4976052;28;20050;-69
2022/06/03 01:33:31;;;;;;;9.48;6.57;;;9.80;99.90;;;;;;4972564;28;20039;-69
2022/06/03 01:36:09;;;;;;;9.60;6.88;;;9.80;99.90;;;;;;4987645;28;20045;-69
2022/06/03 01:38:52;;;;;;;10.80;8.02;;;9.80;99.90;;;;;;4971438;28;20485;-70
2022/06/03 01:41:24;;;;;;;11.18;7.40;;;9.80;99.90;;;;;;4974261;28;20042;-70
2022/06/03 01:44:12;;;;;;;13.35;6.90;;;9.70;99.90;;;;;;4977141;28;20038;-69
2022/06/03 01:47:11;;;;;;;9.43;6.70;;;9.70;99.90;;;;;;4973297;28;20055;-70
2022/06/03 01:50:15;;;;;;;17.13;7.72;;;9.70;99.90;;;;;;4972640;28;20086;-69
2022/06/03 01:52:50;;;;;;;10.30;7.10;;;9.70;99.90;;;;;;4966045;28;20050;-69
2022/06/03 01:55:36;;;;;;;9.55;6.05;;;9.70;99.90;;;;;;4972045;28;20061;-69
2022/06/03 01:58:23;;;;;;;12.55;7.55;;;9.70;99.90;;;;;;4972362;28;20043;-69
2022/06/03 02:01:23;;;;;;;9.07;6.82;;;9.70;99.90;;;;;;4971705;28;20043;-69
2022/06/03 02:04:20;;;;;;;11.32;7.07;;;9.60;99.90;;;;;;4967600;28;20047;-69
2022/06/03 02:06:48;;;;;;;13.23;7.68;;;9.60;99.90;;;;;;4960566;28;20082;-69
2022/06/03 02:09:30;;;;;;;9.68;6.60;;;9.60;99.90;;;;;;4972451;28;20050;-69
2022/06/03 02:12:19;;;;;;;11.48;6.70;;;9.60;99.90;;;;;;4971920;28;20046;-69
2022/06/03 02:15:04;;;;;;;9.27;7.13;;;9.60;99.90;;;;;;4969453;28;20082;-69
2022/06/03 02:17:32;;;;;;;11.32;6.65;;;9.60;99.90;;;;;;4963860;28;20177;-69
2022/06/03 02:20:17;;;;;;;12.82;7.32;;;9.60;99.90;;;;;;4971360;28;20054;-69
2022/06/03 02:22:52;;;;;;;8.18;5.95;;;9.60;99.90;;;;;;4967941;28;20488;-69
2022/06/03 02:25:41;;;;;;;11.98;6.20;;;9.60;99.90;;;;;;4968215;28;20540;-69
2022/06/03 02:28:06;;;;;;;10.23;6.63;;;9.60;99.90;;;;;;4967956;28;20049;-69
2022/06/03 02:30:51;;;;;;;10.50;6.57;;;9.50;99.90;;;;;;4970950;28;20043;-70
2022/06/03 02:33:36;;;;;;;8.30;5.97;;;9.50;99.90;;;;;;4971388;28;20047;-70
2022/06/03 02:36:33;;;;;;;8.90;6.57;;;9.50;99.90;;;;;;4970300;28;20409;-69
2022/06/03 02:39:30;;;;;;;9.35;6.25;;;9.50;99.90;;;;;;4972486;28;20560;-70
2022/06/03 02:42:10;;;;;;;13.23;6.25;;;9.50;99.90;;;;;;4970849;28;20054;-70
2022/06/03 02:45:09;;;;;;;13.68;7.28;;;9.40;99.90;;;;;;4970346;28;20108;-69
2022/06/03 02:47:48;;;;;;;8.68;6.85;;;9.40;99.90;;;;;;4963904;28;20066;-70
2022/06/03 02:50:47;;;;;;;8.43;5.97;;;9.40;99.90;;;;;;4970294;28;20548;-70
2022/06/03 02:53:21;;;;;;;14.35;6.88;;;9.40;99.90;;;;;;4971153;28;20043;-70
2022/06/03 02:56:21;;;;;;;9.52;6.25;;;9.40;99.90;;;;;;4972089;28;20047;-69
2022/06/03 02:59:02;;;;;;;10.63;6.65;;;9.40;99.90;;;;;;4976689;28;20086;-69
2022/06/03 03:01:54;;;;;;;12.48;7.80;;;9.40;99.90;;;;;;4970274;28;20092;-69
2022/06/03 03:04:57;;;;;;;9.65;6.55;;;9.70;99.90;;;;;;4972181;28;20074;-70
2022/06/03 03:08:04;;;;;;;12.02;7.28;;;9.40;99.90;;;;;;4971070;28;20047;-70
2022/06/03 03:10:42;;;;;;;15.20;8.30;;;9.40;99.90;;;;;;4976985;28;20065;-69
2022/06/03 03:13:25;;;;;;;13.73;7.63;;;9.40;99.90;;;;;;4972019;28;20061;-69
2022/06/03 03:15:57;;;;;;;12.82;8.30;;;9.40;99.90;;;;;;4971504;28;20035;-69
2022/06/03 03:18:28;;;;;;;13.90;7.65;;;9.40;99.90;;;;;;4974121;28;20461;-69
2022/06/03 03:21:27;;;;;;;10.77;7.72;;;9.40;99.90;;;;;;4971720;28;20126;-68
2022/06/03 03:24:49;;;;;;;11.57;8.02;;;9.40;99.90;;;;;;4971864;28;20038;-69
2022/06/03 03:27:26;;;;;;;13.27;7.82;;;9.40;99.90;;;;;;4978642;28;20039;-69
2022/06/03 03:30:18;;;;;;;11.88;7.50;;;9.40;99.90;;;;;;4964731;28;20050;-69
2022/06/03 03:33:11;;;;;;;15.45;8.07;;;9.40;99.90;;;;;;4967338;28;20051;-69
2022/06/03 03:35:54;;;;;;;11.95;8.23;;;9.40;99.90;;;;;;4970046;28;20097;-69
2022/06/03 03:38:22;;;;;;;11.73;8.15;;;9.40;99.90;;;;;;4969438;28;20050;-69
2022/06/03 03:41:51;;;;;;;17.10;8.90;;;9.50;99.90;;;;;;4971838;28;20045;-69
2022/06/03 03:44:44;;;;;;;15.68;9.45;;;9.50;99.90;;;;;;5007391;28;20046;-70
2022/06/03 03:47:15;;;;;;;14.35;10.13;;;9.50;99.90;;;;;;5004545;28;20577;-70
2022/06/03 03:50:12;;;;;;;18.63;9.98;;;9.50;99.90;;;;;;4964974;28;20058;-70
2022/06/03 03:53:16;;;;;;;16.45;10.85;;;9.50;99.90;;;;;;4970523;28;20357;-70
2022/06/03 03:55:51;;;;;;;13.93;11.15;;;9.60;99.90;;;;;;4971007;28;20046;-69
2022/06/03 03:58:38;;;;;;;19.83;11.63;;;9.60;99.90;;;;;;4971143;28;20039;-69
2022/06/03 04:01:41;;;;;;;17.55;10.90;;;9.60;99.90;;;;;;4967602;28;20050;-69
2022/06/03 04:04:24;;;;;;;13.23;11.10;;;9.60;99.90;;;;;;4970530;28;20468;-69
2022/06/03 04:07:17;;;;;;;13.52;11.30;;;9.70;99.90;;;;;;4967960;28;20779;-69
2022/06/03 04:10:04;;;;;;;15.57;10.65;;;9.70;99.90;;;;;;4968588;28;20082;-68
2022/06/03 04:12:40;;;;;;;20.77;10.38;;;9.70;99.90;;;;;;4971734;28;20057;-69
2022/06/03 04:15:27;;;;;;;21.17;10.25;;;9.80;99.90;;;;;;4969575;28;20066;-69
2022/06/03 04:18:20;;;;;;;14.65;10.55;;;9.80;99.90;;;;;;4970249;28;20092;-69
2022/06/03 04:21:07;;;;;;;14.85;10.88;;;9.90;99.90;;;;;;4967078;28;20180;-69
2022/06/03 04:23:54;;;;;;;16.30;10.52;;;9.90;99.90;;;;;;4964980;28;20085;-69
2022/06/03 04:26:32;;;;;;;14.85;10.75;;;9.90;99.90;;;;;;4968461;28;20039;-69
2022/06/03 04:29:34;;;;;;;16.80;11.20;;;9.90;99.90;;;;;;4970081;28;20489;-70
2022/06/03 04:32:48;;;;;;;17.92;9.98;;;10.00;99.90;;;;;;4967879;28;20043;-68
2022/06/03 04:36:07;;;;;;;18.73;11.23;;;10.00;99.90;;;;;;4977764;28;20109;-69
2022/06/03 04:38:38;;;;;;;14.32;9.73;;;10.10;99.90;;;;;;4982058;28;20042;-69
2022/06/03 04:41:31;;;;;;;17.90;10.25;;;10.10;99.90;;;;;;4971265;28;20038;-70
2022/06/03 04:44:31;;;;;;;16.00;10.05;;;10.20;99.90;;;;;;4974543;28;20050;-69
2022/06/03 04:47:15;;;;;;;11.57;9.10;;;10.20;99.90;;;;;;4969197;28;20140;-70
2022/06/03 04:49:40;;;;;;;13.73;9.40;;;10.30;99.90;;;;;;4972483;28;20038;-70
2022/06/03 04:52:25;;;;;;;13.38;8.38;;;10.30;99.90;;;;;;4968635;28;20039;-69
2022/06/03 04:55:28;;;;;;;11.10;9.27;;;10.40;99.90;;;;;;4969274;28;20039;-69
2022/06/03 04:58:21;;;;;;;14.13;9.18;;;10.50;99.90;;;;;;4967006;28;20093;-69
2022/06/03 05:01:04;;;;;;;14.40;9.43;;;10.50;99.90;;;;;;4971421;28;20053;-69
2022/06/03 05:04:08;;;;;;;12.30;9.57;;;10.60;99.90;;;;;;4967863;28;20047;-70
2022/06/03 05:06:51;;;;;;;14.60;8.95;;;10.60;99.90;;;;;;4967269;28;20141;-71
2022/06/03 05:10:04;;;;;;;15.88;8.75;;;10.70;99.90;;;;;;4970255;28;20058;-68
2022/06/03 05:12:39;;;;;;;12.27;9.00;;;10.80;99.90;;;;;;4969690;28;20515;-69
2022/06/03 05:15:22;;;;;;;11.25;8.95;;;10.90;99.90;;;;;;4969150;28;20039;-69
2022/06/03 05:18:40;;;;;;;14.85;8.85;;;11.00;99.90;;;;;;4969091;28;20165;-70
2022/06/03 05:21:24;;;;;;;14.88;8.75;;;11.10;99.90;;;;;;4968983;28;20532;-69
2022/06/03 05:24:13;;;;;;;14.65;8.15;;;11.20;99.90;;;;;;4965067;28;20046;-69
2022/06/03 05:26:56;;;;;;;13.75;7.45;;;11.30;99.90;;;;;;4969455;28;20151;-69
2022/06/03 05:29:47;;;;;;;11.25;7.15;;;11.30;99.90;;;;;;4966350;28;20069;-69
2022/06/03 05:32:51;;;;;;;12.75;7.65;;;11.40;99.90;;;;;;4965965;28;20383;-69
2022/06/03 05:35:45;;;;;;;12.57;6.95;;;11.50;99.90;;;;;;4968132;28;20043;-68
2022/06/03 05:38:44;;;;;;;10.20;7.05;;;11.60;99.90;;;;;;4970846;28;20432;-68
2022/06/03 05:44:37;;;;;;;12.35;6.38;;;11.70;99.90;;;;;;4974108;28;20093;-68
2022/06/03 05:47:17;;;;;;;11.60;6.68;;;11.90;99.90;;;;;;4972051;28;20050;-69
2022/06/03 05:49:58;;;;;;;9.55;5.90;;;12.00;99.90;;;;;;4972877;28;20094;-68
2022/06/03 05:52:31;;;;;;;11.05;5.90;;;12.10;99.90;;;;;;4963298;28;20129;-69
2022/06/03 05:55:02;;;;;;;9.40;6.25;;;12.30;99.90;;;;;;4967546;28;20046;-69
2022/06/03 05:57:49;;;;;;;9.60;5.75;;;12.40;99.90;;;;;;4967751;28;20054;-69
2022/06/03 06:00:21;;;;;;;9.45;5.20;;;12.50;99.90;;;;;;4968320;28;20038;-70
2022/06/03 06:03:13;;;;;;;10.75;5.47;;;12.50;99.90;;;;;;4986997;28;20107;-70
2022/06/03 06:05:58;;;;;;;8.32;5.00;;;12.60;99.90;;;;;;4966522;28;20057;-69
2022/06/03 06:08:50;;;;;;;11.82;5.20;;;12.70;99.90;;;;;;4966564;28;20130;-70
2022/06/03 06:11:36;;;;;;;10.77;4.85;;;12.90;99.90;;;;;;4964419;28;20046;-70
2022/06/03 06:14:28;;;;;;;7.63;4.70;;;13.40;99.90;;;;;;4967395;28;20043;-69
2022/06/03 06:16:59;;;;;;;9.75;4.95;;;14.00;99.90;;;;;;4967317;28;20061;-68
2022/06/03 06:19:45;;;;;;;9.90;4.90;;;14.20;99.90;;;;;;4971487;28;20058;-69
2022/06/03 06:22:44;;;;;;;10.25;4.00;;;14.10;99.90;;;;;;4972241;28;20224;-69
2022/06/03 06:25:13;;;;;;;11.38;4.82;;;14.00;99.90;;;;;;4991141;28;20058;-68
2022/06/03 06:28:00;;;;;;;12.23;4.28;;;13.90;99.90;;;;;;4957558;28;20043;-69
2022/06/03 06:30:44;;;;;;;9.63;4.07;;;13.90;99.90;;;;;;4974645;28;20054;-69
2022/06/03 06:33:38;;;;;;;6.47;3.85;;;13.90;99.90;;;;;;4974969;28;20593;-68
2022/06/03 06:36:22;;;;;;;8.25;3.80;;;13.90;99.90;;;;;;4973220;28;20082;-70
2022/06/03 06:38:56;;;;;;;8.90;4.07;;;14.00;99.90;;;;;;4972365;28;20062;-69
2022/06/03 06:41:38;;;;;;;9.00;3.83;;;14.00;99.90;;;;;;4974119;28;20051;-69
2022/06/03 06:44:34;;;;;;;7.35;3.55;;;14.10;99.90;;;;;;4973153;28;20082;-68
2022/06/03 06:47:30;;;;;;;7.93;3.00;;;14.10;99.90;;;;;;4974816;28;20042;-71
2022/06/03 06:49:58;;;;;;;10.80;3.22;;;14.30;99.90;;;;;;4954540;28;20047;-70
2022/06/03 06:52:44;;;;;;;6.78;3.33;;;14.40;99.90;;;;;;4974192;28;20149;-68
2022/06/03 06:55:24;;;;;;;9.88;3.13;;;14.50;99.90;;;;;;4968771;28;20053;-68
2022/06/03 06:58:00;;;;;;;10.05;3.08;;;14.60;99.90;;;;;;4973010;28;20042;-70
2022/06/03 07:00:36;;;;;;;9.68;3.22;;;14.70;99.90;;;;;;4968609;28;20051;-69
2022/06/03 07:03:25;;;;;;;5.10;2.60;;;14.80;99.90;;;;;;4962329;28;20063;-69
2022/06/03 07:06:02;;;;;;;6.72;2.90;;;15.00;99.90;;;;;;4970228;28;20122;-69
2022/06/03 07:08:58;;;;;;;7.82;3.30;;;15.20;99.90;;;;;;4988542;28;20058;-69
2022/06/03 07:11:36;;;;;;;5.60;2.67;;;15.30;99.90;;;;;;4973231;28;20046;-69
2022/06/03 07:14:10;;;;;;;7.00;2.70;;;15.50;99.90;;;;;;4971818;28;20405;-69
2022/06/03 07:19:51;;;;;;;5.28;2.30;;;15.60;99.90;;;;;;4967755;28;20054;-70
2022/06/03 07:22:26;;;;;;;4.18;2.20;;;15.70;99.90;;;;;;4973302;28;20505;-70
2022/06/03 07:25:10;;;;;;;6.68;2.80;;;15.70;99.90;;;;;;4973591;28;20051;-69
2022/06/03 07:27:56;;;;;;;7.95;2.80;;;15.80;99.90;;;;;;4974679;28;20054;-69
2022/06/03 07:30:48;;;;;;;4.72;2.63;;;15.90;99.90;;;;;;4964197;28;20042;-72
2022/06/03 07:33:21;;;;;;;8.20;3.05;;;15.90;99.90;;;;;;4972820;28;20512;-69
2022/06/03 07:36:01;;;;;;;4.30;2.47;;;16.10;99.90;;;;;;4973392;28;20039;-69
2022/06/03 07:39:05;;;;;;;9.95;2.70;;;16.20;99.90;;;;;;4986159;28;20046;-70
2022/06/03 07:41:43;;;;;;;8.20;2.60;;;16.30;99.90;;;;;;4969002;28;20050;-69
2022/06/03 07:44:13;;;;;;;6.07;2.45;;;16.50;99.90;;;;;;4972660;28;20097;-69
2022/06/03 07:46:43;;;;;;;6.07;2.25;;;16.60;99.90;;;;;;4973343;28;20050;-70
2022/06/03 07:49:10;;;;;;;4.43;1.83;;;16.70;99.90;;;;;;4972524;28;20101;-69
2022/06/03 07:51:46;;;;;;;6.10;2.38;;;16.80;99.90;;;;;;4966878;28;20417;-69
2022/06/03 07:54:24;;;;;;;2.88;1.55;;;16.80;99.90;;;;;;4968491;28;20395;-70
2022/06/03 07:56:58;;;;;;;4.20;1.73;;;16.90;99.90;;;;;;4964547;28;20138;-70
2022/06/03 07:59:24;;;;;;;3.00;1.65;;;16.90;99.90;;;;;;4960649;28;20050;-68
2022/06/03 08:01:59;;;;;;;2.58;1.60;;;17.00;99.90;;;;;;4964216;28;20455;-69
2022/06/03 08:04:36;;;;;;;4.68;1.75;;;17.20;99.90;;;;;;4965853;28;20780;-70
2022/06/03 08:12:38;;;;;;;4.05;1.45;;;17.40;99.70;;;;;;4969803;28;20058;-69
2022/06/03 08:15:22;;;;;;;4.32;2.35;;;17.50;99.10;;;;;;4970062;28;20493;-70
2022/06/03 08:17:50;;;;;;;5.30;1.73;;;17.60;98.30;;;;;;4960994;28;20051;-68
2022/06/03 08:20:19;;;;;;;3.22;1.65;;;17.80;99.20;;;;;;4959622;28;20078;-71
2022/06/03 08:22:46;;;;;;;6.18;2.00;;;17.80;98.10;;;;;;4968039;28;20050;-69
2022/06/03 08:25:18;;;;;;;3.40;1.60;;;18.00;98.80;;;;;;4968484;28;20062;-69
2022/06/03 08:27:46;;;;;;;4.55;1.88;;;18.00;98.40;;;;;;4973184;28;20476;-69
2022/06/03 08:30:17;;;;;;;5.25;1.80;;;18.00;97.90;;;;;;4965209;28;20489;-71
2022/06/03 08:32:58;;;;;;;6.28;2.13;;;18.10;97.80;;;;;;4964320;28;20042;-70
2022/06/03 08:35:45;;;;;;;4.35;1.70;;;18.20;96.20;;;;;;4959389;28;20153;-70
2022/06/03 08:38:40;;;;;;;3.22;1.60;;;18.30;96.40;;;;;;4970235;28;20046;-70
2022/06/03 08:41:09;;;;;;;4.60;1.60;;;18.30;95.80;;;;;;4971395;28;20141;-70
2022/06/03 08:44:02;;;;;;;7.10;1.75;;;18.40;96.20;;;;;;4969349;28;20386;-69
2022/06/03 08:46:33;;;;;;;6.35;1.60;;;18.50;96.60;;;;;;4975249;28;20054;-68
2022/06/03 08:49:03;;;;;;;3.97;2.00;;;18.70;96.30;;;;;;4971136;28;20497;-69
2022/06/03 08:51:34;;;;;;;2.72;1.30;;;18.80;95.30;;;;;;4968805;28;20137;-71
2022/06/03 08:54:00;;;;;;;3.20;1.85;;;18.90;95.20;;;;;;4964643;28;20043;-70
2022/06/03 08:56:32;;;;;;;4.00;1.65;;;19.00;95.70;;;;;;4964232;28;20047;-69
2022/06/03 08:59:07;;;;;;;2.50;1.42;;;19.10;94.20;;;;;;4969350;28;20046;-69
2022/06/03 09:01:45;;;;;;;3.17;1.85;;;19.00;95.10;;;;;;4966741;28;20051;-69
2022/06/03 09:04:20;;;;;;;2.88;1.70;;;19.10;94.70;;;;;;4962693;28;20386;-68
2022/06/03 09:06:49;;;;;;;4.50;1.52;;;19.30;94.80;;;;;;4959037;28;20059;-69
2022/06/03 09:09:28;;;;;;;3.33;1.60;;;19.30;94.40;;;;;;4972421;28;20501;-69
2022/06/03 09:12:05;;;;;;;4.85;1.40;;;19.20;93.00;;;;;;4971057;28;20108;-69
2022/06/03 09:14:32;;;;;;;3.35;1.45;;;19.30;93.80;;;;;;4973097;28;20137;-68
2022/06/03 09:17:14;;;;;;;3.37;1.60;;;19.30;92.30;;;;;;4973032;28;20452;-69
2022/06/03 09:19:45;;;;;;;5.00;2.08;;;19.40;92.80;;;;;;4972286;28;20505;-70
2022/06/03 09:22:20;;;;;;;5.65;1.77;;;19.50;93.10;;;;;;4956460;28;20129;-70
2022/06/03 09:24:46;;;;;;;4.40;1.70;;;19.60;92.80;;;;;;4971304;28;20711;-70
2022/06/03 09:27:16;;;;;;;4.75;1.70;;;19.70;92.80;;;;;;4973542;28;20126;-69
2022/06/03 09:29:51;;;;;;;3.67;1.50;;;19.60;91.90;;;;;;4972370;28;20047;-69
2022/06/03 09:32:19;;;;;;;4.40;1.65;;;19.70;92.80;;;;;;4973883;28;20404;-69
2022/06/03 09:34:52;;;;;;;3.75;1.60;;;19.70;92.80;;;;;;4965059;28;20074;-69
2022/06/03 09:37:31;;;;;;;4.97;2.08;;;19.80;92.60;;;;;;4968392;28;20452;-70
2022/06/03 09:40:00;;;;;;;3.05;1.83;;;19.90;92.80;;;;;;4975397;28;20408;-69
2022/06/03 09:42:29;;;;;;;18.48;3.38;;;20.00;91.40;;;;;;4976624;28;20126;-70
2022/06/03 09:44:59;;;;;;;3.42;2.20;;;20.00;90.90;;;;;;4969037;28;20464;-70
2022/06/03 09:47:26;;;;;;;6.53;1.80;;;19.90;92.00;;;;;;4970770;28;20051;-70
2022/06/03 09:49:53;;;;;;;3.97;1.55;;;19.90;91.30;;;;;;4970973;28;20053;-69
2022/06/03 09:52:25;;;;;;;7.40;1.77;;;20.00;91.60;;;;;;4954169;28;20142;-69
2022/06/03 09:54:52;;;;;;;3.03;1.40;;;20.20;92.10;;;;;;4970502;28;20820;-70
2022/06/03 09:57:38;;;;;;;3.35;1.80;;;20.40;91.60;;;;;;4967219;28;20043;-69
2022/06/03 10:00:17;;;;;;;5.72;1.80;;;20.50;90.70;;;;;;4968930;28;20533;-67
2022/06/03 10:02:44;;;;;;;5.10;1.85;;;20.50;90.30;;;;;;4970408;28;20070;-69
2022/06/03 10:05:14;;;;;;;4.45;2.30;;;20.50;90.40;;;;;;4968066;28;20043;-69
2022/06/03 10:07:40;;;;;;;3.75;1.95;;;20.70;87.70;;;;;;4966091;28;20054;-68
2022/06/03 10:12:53;;;;;;;4.70;2.30;;;20.70;89.80;;;;;;4969374;28;20047;-68
2022/06/03 10:15:38;;;;;;;4.75;2.08;;;20.70;87.90;;;;;;4970869;28;20516;-68
2022/06/03 10:18:28;;;;;;;5.93;2.30;;;20.80;87.20;;;;;;4962897;28;20130;-68
2022/06/03 10:21:14;;;;;;;6.70;2.20;;;21.00;87.80;;;;;;4967504;28;20121;-68
2022/06/03 10:23:53;;;;;;;3.38;1.98;;;21.00;84.80;;;;;;4949098;28;20455;-68
2022/06/03 10:26:25;;;;;;;5.82;2.20;;;21.10;88.60;;;;;;4951371;28;20142;-68
2022/06/03 10:28:53;;;;;;;3.60;2.15;;;21.20;85.90;;;;;;4968535;28;20054;-68
2022/06/03 10:31:28;;;;;;;13.23;2.65;;;21.40;87.00;;;;;;4968402;28;20050;-69
2022/06/03 10:33:56;;;;;;;5.40;2.47;;;21.60;83.50;;;;;;4970380;28;20134;-68
2022/06/03 10:36:28;;;;;;;4.88;2.33;;;21.90;84.30;;;;;;4971424;28;20093;-69
2022/06/03 10:38:54;;;;;;;3.80;1.90;;;22.00;84.50;;;;;;4979711;28;20053;-69
2022/06/03 10:41:30;;;;;;;4.55;2.35;;;22.20;85.70;;;;;;4971665;28;20042;-68
2022/06/03 10:43:56;;;;;;;5.13;2.30;;;22.30;79.50;;;;;;4971446;28;20861;-68
2022/06/03 10:46:21;;;;;;;2.65;2.00;;;22.40;82.10;;;;;;4972127;28;20047;-68
2022/06/03 10:48:47;;;;;;;5.88;2.30;;;22.60;82.30;;;;;;4980347;28;20047;-69
2022/06/03 10:51:18;;;;;;;4.07;2.38;;;22.70;78.90;;;;;;4975087;28;20043;-67
2022/06/03 11:02:36;;;;;;;4.72;2.38;;;22.70;76.80;;;;;;4969757;28;20061;-67
2022/06/03 11:05:25;;;;;;;5.80;2.40;;;22.90;77.60;;;;;;4958662;28;20055;-68
2022/06/03 11:08:05;;;;;;;4.05;2.10;;;23.10;77.40;;;;;;4971996;28;20077;-69
2022/06/03 11:10:52;;;;;;;3.17;1.95;;;23.10;74.40;;;;;;4983084;28;20059;-69
2022/06/03 11:13:45;;;;;;;3.80;2.10;;;23.40;73.60;;;;;;4968503;28;20571;-69
2022/06/03 11:16:19;;;;;;;7.47;2.13;;;23.60;74.10;;;;;;4972652;28;20368;-69
2022/06/03 11:18:45;;;;;;;5.40;2.20;;;23.70;73.30;;;;;;4971080;28;20544;-69
2022/06/03 11:21:23;;;;;;;3.45;1.90;;;23.60;75.10;;;;;;4952424;28;20046;-68
2022/06/03 11:23:49;;;;;;;3.47;2.10;;;23.70;74.90;;;;;;4967064;28;20050;-67
2022/06/03 11:26:15;;;;;;;3.60;2.05;;;23.80;73.40;;;;;;4951984;28;20605;-69
2022/06/03 11:28:53;;;;;;;3.50;1.75;;;23.90;71.10;;;;;;4965042;28;20051;-67
2022/06/03 11:31:24;;;;;;;3.97;2.05;;;24.00;70.70;;;;;;4982395;28;20660;-66
2022/06/03 11:34:04;;;;;;;5.15;2.15;;;24.00;69.80;;;;;;4984689;28;20077;-68
2022/06/03 11:36:35;;;;;;;3.58;2.00;;;23.60;70.70;;;;;;4981352;28;20046;-68
2022/06/03 11:39:29;;;;;;;5.40;1.95;;;23.50;71.70;;;;;;4973536;28;20063;-69
2022/06/03 11:42:07;;;;;;;4.90;2.10;;;23.40;71.40;;;;;;4985119;28;20053;-67
2022/06/03 11:44:42;;;;;;;6.80;2.15;;;23.30;70.70;;;;;;4974495;28;20042;-67
2022/06/03 11:47:49;;;;;;;6.75;2.22;;;23.40;71.60;;;;;;4990289;28;20416;-68
2022/06/03 11:50:20;;;;;;;5.10;2.30;;;23.30;69.40;;;;;;4980076;28;20055;-68
2022/06/03 11:52:48;;;;;;;3.75;2.60;;;23.40;69.40;;;;;;4952105;28;20055;-68
2022/06/03 11:55:15;;;;;;;6.10;2.38;;;23.10;69.80;;;;;;4961366;28;20057;-68
2022/06/03 11:58:12;;;;;;;6.30;1.90;;;22.90;69.60;;;;;;4963458;28;20047;-67
2022/06/03 12:00:45;;;;;;;4.55;2.10;;;22.60;70.30;;;;;;4955453;28;20062;-68
2022/06/03 12:03:38;;;;;;;4.75;2.75;;;22.40;71.60;;;;;;4955545;28;20082;-68
2022/06/03 12:06:42;;;;;;;5.25;2.40;;;22.30;70.70;;;;;;4983979;28;20462;-68
2022/06/03 12:09:19;;;;;;;5.32;2.20;;;22.30;71.60;;;;;;4969835;28;20052;-68
2022/06/03 12:14:58;;;;;;;4.75;2.30;;;22.50;72.70;;;;;;4971193;28;20051;-68
2022/06/03 12:17:32;;;;;;;5.57;2.28;;;22.40;72.80;;;;;;4970014;28;20081;-68
2022/06/03 12:19:58;;;;;;;3.20;1.90;;;22.30;73.50;;;;;;4948288;28;20055;-69
2022/06/03 12:22:30;;;;;;;5.15;2.10;;;22.50;74.70;;;;;;4969543;28;20097;-68
2022/06/03 12:24:58;;;;;;;4.65;1.90;;;22.40;72.30;;;;;;4969645;28;20647;-68
2022/06/03 12:27:39;;;;;;;4.38;1.85;;;22.20;74.70;;;;;;4978520;28;20386;-68
2022/06/03 12:30:26;;;;;;;5.28;2.05;;;22.40;76.00;;;;;;4970320;28;20043;-68
2022/06/03 12:32:58;;;;;;;5.68;2.20;;;22.70;73.30;;;;;;4970126;28;20109;-68
2022/06/03 12:35:42;;;;;;;3.00;1.80;;;22.70;72.80;;;;;;4976928;28;20043;-68
2022/06/03 12:38:20;;;;;;;5.82;2.55;;;22.60;71.70;;;;;;4965700;28;20051;-68
2022/06/03 12:40:55;;;;;;;12.10;2.47;;;22.40;74.30;;;;;;4969588;28;20486;-68
2022/06/03 12:43:46;;;;;;;5.60;1.90;;;22.40;72.80;;;;;;4951758;28;20047;-68
2022/06/03 12:46:38;;;;;;;4.05;1.60;;;22.50;72.70;;;;;;4976315;28;20149;-68
2022/06/03 12:49:36;;;;;;;4.45;1.92;;;22.50;72.20;;;;;;4973728;28;20058;-68
2022/06/03 12:52:08;;;;;;;5.78;2.35;;;22.50;74.30;;;;;;4955100;28;20066;-67
2022/06/03 12:54:37;;;;;;;3.83;1.95;;;22.80;73.90;;;;;;4960591;28;20066;-67
2022/06/03 12:57:17;;;;;;;8.02;2.10;;;22.80;72.20;;;;;;4974395;28;20058;-67
2022/06/03 12:59:52;;;;;;;2.63;1.50;;;22.70;72.70;;;;;;4972416;28;20051;-68
2022/06/03 13:02:22;;;;;;;3.92;1.75;;;22.70;73.80;;;;;;4972978;28;20098;-68
2022/06/03 13:04:54;;;;;;;2.88;1.50;;;22.80;73.80;;;;;;4991111;28;20051;-68
2022/06/03 13:07:26;;;;;;;4.28;1.60;;;22.50;73.00;;;;;;4973150;28;20402;-69
2022/06/03 13:10:04;;;;;;;4.88;1.77;;;22.30;74.40;;;;;;4973026;28;20497;-69
2022/06/03 13:12:32;;;;;;;3.35;1.63;;;22.40;76.20;;;;;;4972064;28;20138;-68
2022/06/03 13:15:17;;;;;;;10.68;1.95;;;22.70;76.80;;;;;;4971345;28;20481;-68
2022/06/03 13:20:37;;;;;;;3.97;1.60;;;22.80;74.00;;;;;;4973134;28;20058;-66
2022/06/03 13:23:22;;;;;;;3.00;1.38;;;22.70;73.90;;;;;;4973581;28;20046;-67
2022/06/03 13:25:50;;;;;;;4.53;1.30;;;22.70;74.30;;;;;;4981814;28;20046;-68
2022/06/03 13:28:37;;;;;;;2.47;1.27;;;22.70;74.50;;;;;;4973460;28;20090;-67
2022/06/03 13:31:09;;;;;;;4.53;1.63;;;22.50;74.60;;;;;;4964653;28;20509;-68
2022/06/03 13:34:12;;;;;;;4.25;1.40;;;22.70;74.50;;;;;;4973137;28;20394;-68
2022/06/03 13:36:50;;;;;;;5.93;1.98;;;22.60;72.60;;;;;;4972473;28;20058;-68
2022/06/03 13:39:24;;;;;;;5.15;1.45;;;22.60;71.40;;;;;;4972064;28;20138;-68
2022/06/03 13:45:02;;;;;;;3.00;1.35;;;22.80;70.40;;;;;;4972315;28;20058;-68
2022/06/03 13:47:35;;;;;;;3.80;1.50;;;22.70;71.90;;;;;;4971900;28;20405;-66
2022/06/03 13:50:17;;;;;;;3.95;1.40;;;23.10;70.20;;;;;;4970394;28;20050;-66
2022/06/03 13:52:58;;;;;;;6.32;1.25;;;23.10;70.50;;;;;;4981889;28;20061;-68
2022/06/03 13:55:26;;;;;;;4.45;1.58;;;23.20;69.30;;;;;;4973363;28;20070;-67
2022/06/03 13:58:12;;;;;;;4.75;1.58;;;23.40;68.50;;;;;;4975795;28;20105;-69
2022/06/03 14:00:50;;;;;;;2.47;1.35;;;23.60;66.60;;;;;;4970416;28;20363;-68
2022/06/03 14:03:30;;;;;;;6.20;1.48;;;23.30;66.40;;;;;;4972855;28;20054;-68
2022/06/03 14:06:02;;;;;;;3.38;1.33;;;23.30;66.30;;;;;;4976148;28;20554;-69
2022/06/03 14:08:50;;;;;;;7.07;1.55;;;23.40;68.50;;;;;;4983660;28;20507;-68
2022/06/03 14:11:26;;;;;;;7.05;1.60;;;23.30;67.10;;;;;;4953234;28;20047;-68
2022/06/03 14:13:52;;;;;;;4.78;1.40;;;23.40;66.60;;;;;;4974528;28;20126;-68
2022/06/03 14:16:29;;;;;;;6.45;1.30;;;23.60;66.10;;;;;;4975211;28;20129;-68
2022/06/03 14:19:09;;;;;;;6.37;1.50;;;23.80;65.00;;;;;;4968299;28;20054;-67
2022/06/03 14:21:38;;;;;;;7.55;1.45;;;24.00;65.50;;;;;;4957066;28;20446;-68
2022/06/03 14:24:08;;;;;;;3.50;1.30;;;24.00;64.40;;;;;;4970641;28;20053;-66
2022/06/03 14:26:43;;;;;;;1.83;1.10;;;24.10;63.00;;;;;;4971094;28;20405;-67
2022/06/03 14:29:27;;;;;;;4.55;1.50;;;24.20;61.50;;;;;;4970257;28;20089;-68
2022/06/03 14:32:03;;;;;;;3.88;1.30;;;23.90;61.20;;;;;;4972494;28;20051;-69